Time;durP1;ratioP1;P1;durP2;ratioP2;P2;SDS_P1;SDS_P2;PMS_P1;PMS_P2;Temp;Humidity;BMP_temperature;BMP_pressure;BME280_temperature;BME280_humidity;BME280_pressure;Samples;Min_cycle;Max_cycle;Signal;HPM_P1;HPM_P2
2021/09/13 00:01:25;;;;;;;18.92;14.60;;;;;;;;;;729977;190;917025;-69
2021/09/13 00:03:51;;;;;;;16.80;13.20;;;;;;;;;;732693;189;918855;-68
2021/09/13 00:06:17;;;;;;;19.50;14.00;;;;;;;;;;739441;189;916028;-69
2021/09/13 00:08:43;;;;;;;19.43;13.73;;;;;;;;;;732633;189;914957;-69
2021/09/13 00:11:08;;;;;;;20.10;15.10;;;;;;;;;;731957;189;915741;-69
2021/09/13 00:13:34;;;;;;;18.60;14.70;;;;;;;;;;739564;189;934120;-69
2021/09/13 00:16:02;;;;;;;17.43;13.93;;;;;;;;;;737601;189;918382;-69
2021/09/13 00:18:26;;;;;;;16.53;14.03;;;;;;;;;;737408;189;916518;-70
2021/09/13 00:20:53;;;;;;;19.20;14.70;;;;;;;;;;741267;189;914248;-69
2021/09/13 00:23:20;;;;;;;17.80;13.20;;;;;;;;;;736057;189;918140;-69
2021/09/13 00:25:44;;;;;;;15.45;12.70;;;;;;;;;;733340;189;920984;-70
2021/09/13 00:28:11;;;;;;;20.27;13.67;;;;;;;;;;729796;189;921352;-68
2021/09/13 00:30:36;;;;;;;19.10;14.07;;;;;;;;;;730594;190;917361;-69
2021/09/13 00:33:02;;;;;;;14.07;11.47;;;;;;;;;;730689;190;916442;-68
2021/09/13 00:35:29;;;;;;;10.43;8.85;;;;;;;;;;732603;189;915443;-68
2021/09/13 00:37:54;;;;;;;12.47;9.43;;;;;;;;;;738085;189;916411;-69
2021/09/13 00:40:20;;;;;;;12.53;9.83;;;;;;;;;;732076;189;919333;-69
2021/09/13 00:42:46;;;;;;;13.80;10.68;;;;;;;;;;730591;189;915605;-69
2021/09/13 00:45:11;;;;;;;17.00;13.07;;;;;;;;;;739436;189;911071;-68
2021/09/13 00:47:37;;;;;;;20.27;13.37;;;;;;;;;;736185;189;926112;-71
2021/09/13 00:50:04;;;;;;;17.70;12.53;;;;;;;;;;736840;189;916849;-69
2021/09/13 00:52:30;;;;;;;15.27;11.10;;;;;;;;;;735248;189;917070;-69
2021/09/13 00:54:55;;;;;;;12.70;10.27;;;;;;;;;;739875;186;910969;-68
2021/09/13 00:57:21;;;;;;;15.23;11.10;;;;;;;;;;734649;189;914526;-69
2021/09/13 00:59:47;;;;;;;13.17;9.30;;;;;;;;;;735790;189;912183;-69
2021/09/13 01:02:13;;;;;;;12.97;10.80;;;;;;;;;;741397;189;919296;-69
2021/09/13 01:04:39;;;;;;;16.17;10.20;;;;;;;;;;733263;189;920139;-69
2021/09/13 01:07:05;;;;;;;13.52;9.45;;;;;;;;;;735441;189;919479;-69
2021/09/13 01:09:31;;;;;;;12.53;10.40;;;;;;;;;;737337;189;918878;-69
2021/09/13 01:11:57;;;;;;;13.77;11.03;;;;;;;;;;732173;189;918282;-69
2021/09/13 01:14:23;;;;;;;13.70;10.80;;;;;;;;;;732772;188;1014480;-69
2021/09/13 01:16:49;;;;;;;16.27;10.93;;;;;;;;;;738535;189;915486;-68
2021/09/13 01:19:14;;;;;;;17.77;10.07;;;;;;;;;;731734;189;914113;-69
2021/09/13 01:21:40;;;;;;;15.13;11.30;;;;;;;;;;734799;189;914284;-69
2021/09/13 01:24:06;;;;;;;13.43;11.10;;;;;;;;;;733111;189;913627;-69
2021/09/13 01:26:32;;;;;;;11.80;9.93;;;;;;;;;;736606;189;912779;-69
2021/09/13 01:28:58;;;;;;;15.33;11.90;;;;;;;;;;731477;189;912496;-68
2021/09/13 01:31:24;;;;;;;14.90;11.57;;;;;;;;;;735653;189;918828;-69
2021/09/13 01:33:49;;;;;;;15.97;11.93;;;;;;;;;;741205;189;919538;-69
2021/09/13 01:36:15;;;;;;;18.80;11.73;;;;;;;;;;735919;189;1012670;-71
2021/09/13 01:38:41;;;;;;;15.43;12.03;;;;;;;;;;736377;189;919121;-69
2021/09/13 01:41:07;;;;;;;15.52;10.57;;;;;;;;;;739028;190;918312;-69
2021/09/13 01:43:33;;;;;;;15.43;12.10;;;;;;;;;;733785;190;919976;-69
2021/09/13 01:45:59;;;;;;;16.30;11.77;;;;;;;;;;733027;189;919029;-69
2021/09/13 01:48:25;;;;;;;15.77;12.30;;;;;;;;;;731357;189;918821;-69
2021/09/13 01:50:50;;;;;;;13.50;10.80;;;;;;;;;;739030;190;918254;-69
2021/09/13 01:53:16;;;;;;;13.40;11.93;;;;;;;;;;736161;189;918593;-69
2021/09/13 01:55:42;;;;;;;17.93;11.80;;;;;;;;;;734979;189;918448;-69
2021/09/13 01:58:08;;;;;;;16.77;12.23;;;;;;;;;;741025;189;919666;-69
2021/09/13 02:00:34;;;;;;;17.40;12.20;;;;;;;;;;736962;189;918679;-69
2021/09/13 02:03:00;;;;;;;22.03;13.00;;;;;;;;;;736202;189;919897;-70
2021/09/13 02:05:25;;;;;;;16.17;12.23;;;;;;;;;;737016;189;919058;-69
2021/09/13 02:07:51;;;;;;;16.67;12.80;;;;;;;;;;731222;189;918613;-68
2021/09/13 02:10:17;;;;;;;19.95;13.15;;;;;;;;;;729037;189;919497;-70
2021/09/13 02:12:43;;;;;;;16.63;11.50;;;;;;;;;;735229;189;918428;-68
2021/09/13 02:15:09;;;;;;;33.97;13.13;;;;;;;;;;729345;190;919297;-69
2021/09/13 02:17:35;;;;;;;17.20;12.07;;;;;;;;;;728448;190;917529;-69
2021/09/13 02:20:01;;;;;;;15.07;12.57;;;;;;;;;;731230;190;918972;-69
2021/09/13 02:22:27;;;;;;;20.20;12.03;;;;;;;;;;735847;189;917770;-69
2021/09/13 02:24:53;;;;;;;14.70;11.60;;;;;;;;;;735928;189;916904;-69
2021/09/13 02:27:19;;;;;;;15.18;11.68;;;;;;;;;;733677;188;916226;-69
2021/09/13 02:29:44;;;;;;;15.63;12.20;;;;;;;;;;740363;189;919791;-69
2021/09/13 02:32:10;;;;;;;14.13;11.23;;;;;;;;;;738100;189;920667;-69
2021/09/13 02:34:36;;;;;;;14.50;11.43;;;;;;;;;;737809;189;916534;-69
2021/09/13 02:37:03;;;;;;;19.40;12.45;;;;;;;;;;740325;189;927089;-68
2021/09/13 02:39:29;;;;;;;17.77;12.67;;;;;;;;;;737376;185;916099;-69
2021/09/13 02:41:55;;;;;;;19.70;13.47;;;;;;;;;;722521;193;915758;-69
2021/09/13 02:44:23;;;;;;;15.00;11.40;;;;;;;;;;727069;189;918487;-68
2021/09/13 02:46:46;;;;;;;16.93;12.80;;;;;;;;;;741044;189;918259;-69
2021/09/13 02:49:12;;;;;;;16.30;11.80;;;;;;;;;;733162;190;918608;-69
2021/09/13 02:51:38;;;;;;;15.13;12.13;;;;;;;;;;735644;189;918633;-69
2021/09/13 02:54:04;;;;;;;14.40;11.50;;;;;;;;;;740573;189;919037;-69
2021/09/13 02:56:30;;;;;;;15.93;12.27;;;;;;;;;;733890;189;918925;-69
2021/09/13 02:58:55;;;;;;;18.00;13.50;;;;;;;;;;737888;189;918879;-69
2021/09/13 03:01:21;;;;;;;16.13;12.80;;;;;;;;;;738277;189;943472;-69
2021/09/13 03:03:47;;;;;;;15.07;11.63;;;;;;;;;;731262;189;919181;-69
2021/09/13 03:06:13;;;;;;;21.00;13.67;;;;;;;;;;729407;189;919116;-69
2021/09/13 03:08:39;;;;;;;14.70;11.60;;;;;;;;;;735593;189;918745;-69
2021/09/13 03:11:05;;;;;;;18.83;13.60;;;;;;;;;;737133;189;919028;-70
2021/09/13 03:13:31;;;;;;;18.47;13.63;;;;;;;;;;734378;189;918722;-69
2021/09/13 03:15:56;;;;;;;18.60;13.27;;;;;;;;;;733689;189;919550;-69
2021/09/13 03:18:22;;;;;;;15.57;13.13;;;;;;;;;;736961;189;918902;-69
2021/09/13 03:20:48;;;;;;;20.87;13.47;;;;;;;;;;733260;189;919133;-69
2021/09/13 03:23:14;;;;;;;23.75;14.27;;;;;;;;;;730322;189;918575;-69
2021/09/13 03:25:40;;;;;;;24.37;14.13;;;;;;;;;;736237;189;926124;-69
2021/09/13 03:28:06;;;;;;;30.07;15.40;;;;;;;;;;733773;189;918808;-69
2021/09/13 03:30:32;;;;;;;20.57;14.60;;;;;;;;;;731962;189;1128468;-69
2021/09/13 03:32:57;;;;;;;22.77;14.27;;;;;;;;;;734509;189;918165;-69
2021/09/13 03:35:23;;;;;;;17.40;12.93;;;;;;;;;;729496;190;919679;-69
2021/09/13 03:37:49;;;;;;;18.50;14.83;;;;;;;;;;733838;188;919302;-69
2021/09/13 03:40:15;;;;;;;20.37;15.47;;;;;;;;;;736454;189;917396;-70
2021/09/13 03:42:41;;;;;;;25.63;17.07;;;;;;;;;;737970;189;917918;-70
2021/09/13 03:45:07;;;;;;;26.00;17.87;;;;;;;;;;735593;189;919271;-70
2021/09/13 03:47:33;;;;;;;29.13;19.37;;;;;;;;;;735030;189;919625;-70
2021/09/13 03:49:59;;;;;;;35.07;22.07;;;;;;;;;;737988;189;918092;-70
2021/09/13 03:52:24;;;;;;;29.47;21.00;;;;;;;;;;733965;189;919699;-70
2021/09/13 03:54:50;;;;;;;48.77;21.43;;;;;;;;;;736290;189;918759;-70
2021/09/13 03:57:16;;;;;;;41.72;21.73;;;;;;;;;;735402;189;918367;-69
2021/09/13 03:59:42;;;;;;;33.17;22.30;;;;;;;;;;736316;186;919086;-71
2021/09/13 04:04:51;;;;;;;30.17;19.73;;;;;;;;;;735483;189;918278;-71
2021/09/13 04:07:20;;;;;;;26.60;18.30;;;;;;;;;;735375;190;916259;-71
2021/09/13 04:09:51;;;;;;;24.03;18.30;;;;;;;;;;733341;190;919296;-71
2021/09/13 04:12:11;;;;;;;21.00;14.40;;;;;;;;;;734334;189;917903;-71
2021/09/13 04:14:37;;;;;;;23.23;16.37;;;;;;;;;;735133;189;922523;-71
2021/09/13 04:17:03;;;;;;;20.87;15.73;;;;;;;;;;738703;189;918967;-71
2021/09/13 04:19:29;;;;;;;18.60;14.43;;;;;;;;;;739617;189;639035;-71
2021/09/13 04:21:54;;;;;;;23.00;14.60;;;;;;;;;;739136;189;630761;-71
2021/09/13 04:24:20;;;;;;;24.50;15.10;;;;;;;;;;736476;189;620621;-73
2021/09/13 04:26:46;;;;;;;18.03;13.80;;;;;;;;;;739182;188;619073;-71
2021/09/13 04:29:12;;;;;;;24.03;12.87;;;;;;;;;;730054;189;930046;-71
2021/09/13 04:31:38;;;;;;;22.50;15.73;;;;;;;;;;732868;189;919770;-71
2021/09/13 04:34:04;;;;;;;18.80;14.33;;;;;;;;;;739805;189;962095;-71
2021/09/13 04:36:30;;;;;;;17.33;15.07;;;;;;;;;;733102;189;920105;-71
2021/09/13 04:38:55;;;;;;;35.07;15.37;;;;;;;;;;738084;189;620114;-71
2021/09/13 04:41:21;;;;;;;22.10;15.67;;;;;;;;;;740303;189;629877;-72
2021/09/13 04:43:47;;;;;;;20.67;15.70;;;;;;;;;;738466;189;632825;-71
2021/09/13 04:46:13;;;;;;;16.07;12.70;;;;;;;;;;738840;189;632214;-71
2021/09/13 04:48:39;;;;;;;17.85;14.98;;;;;;;;;;734871;189;918720;-71
2021/09/13 04:51:05;;;;;;;20.90;14.77;;;;;;;;;;729262;187;918764;-72
2021/09/13 04:53:31;;;;;;;19.13;14.93;;;;;;;;;;734713;189;868530;-73
2021/09/13 04:55:56;;;;;;;18.33;13.30;;;;;;;;;;738208;189;866310;-72
2021/09/13 04:58:22;;;;;;;20.27;13.90;;;;;;;;;;741793;189;631583;-71
2021/09/13 05:00:48;;;;;;;18.10;14.73;;;;;;;;;;733140;189;918749;-72
2021/09/13 05:03:14;;;;;;;24.60;14.37;;;;;;;;;;738705;189;917285;-72
2021/09/13 05:05:40;;;;;;;17.03;12.83;;;;;;;;;;739912;189;918448;-71
2021/09/13 05:08:06;;;;;;;17.20;12.83;;;;;;;;;;734531;189;918326;-71
2021/09/13 05:10:32;;;;;;;19.65;13.50;;;;;;;;;;734970;189;973994;-71
2021/09/13 05:12:58;;;;;;;20.23;13.60;;;;;;;;;;740539;189;905548;-71
2021/09/13 05:15:23;;;;;;;20.37;14.20;;;;;;;;;;735064;189;918790;-71
2021/09/13 05:17:49;;;;;;;19.83;13.07;;;;;;;;;;736171;189;918701;-72
2021/09/13 05:20:15;;;;;;;19.33;13.53;;;;;;;;;;735043;189;918660;-70
2021/09/13 05:22:41;;;;;;;18.30;14.30;;;;;;;;;;740226;189;919468;-72
2021/09/13 05:25:07;;;;;;;20.03;14.93;;;;;;;;;;734523;189;919997;-70
2021/09/13 05:27:33;;;;;;;27.37;17.47;;;;;;;;;;733114;189;921830;-70
2021/09/13 05:29:59;;;;;;;25.70;17.37;;;;;;;;;;737800;189;919653;-71
2021/09/13 05:32:25;;;;;;;30.80;20.33;;;;;;;;;;734452;189;919833;-70
2021/09/13 05:34:51;;;;;;;33.47;21.77;;;;;;;;;;734928;189;918028;-71
2021/09/13 05:37:16;;;;;;;30.10;22.60;;;;;;;;;;739102;189;924301;-71
2021/09/13 05:39:42;;;;;;;31.67;22.87;;;;;;;;;;734936;189;919290;-72
2021/09/13 05:42:08;;;;;;;37.83;24.52;;;;;;;;;;736621;189;918608;-71
2021/09/13 05:44:34;;;;;;;42.97;28.40;;;;;;;;;;734241;189;918670;-72
2021/09/13 05:47:00;;;;;;;54.47;26.30;;;;;;;;;;726060;190;1057249;-72
2021/09/13 05:49:26;;;;;;;46.23;27.67;;;;;;;;;;730231;190;918823;-72
2021/09/13 05:51:52;;;;;;;45.97;28.23;;;;;;;;;;731834;189;919436;-72
2021/09/13 05:54:22;;;;;;;41.17;27.23;;;;;;;;;;739749;189;919138;-72
2021/09/13 05:56:49;;;;;;;40.97;29.27;;;;;;;;;;730679;189;920324;-72
2021/09/13 05:59:09;;;;;;;43.27;29.03;;;;;;;;;;731801;189;919309;-73
2021/09/13 06:01:35;;;;;;;41.17;29.10;;;;;;;;;;736453;190;915145;-72
2021/09/13 06:04:02;;;;;;;47.45;28.30;;;;;;;;;;734823;189;916689;-73
2021/09/13 06:06:29;;;;;;;43.67;29.10;;;;;;;;;;739350;189;916380;-72
2021/09/13 06:08:55;;;;;;;52.30;30.63;;;;;;;;;;734073;189;925741;-73
2021/09/13 06:11:26;;;;;;;38.00;27.50;;;;;;;;;;735913;185;918613;-74
2021/09/13 06:13:49;;;;;;;112.97;37.00;;;;;;;;;;723421;193;918774;-73
2021/09/13 06:16:16;;;;;;;117.40;37.77;;;;;;;;;;732652;189;1020856;-74
2021/09/13 06:18:41;;;;;;;67.07;28.87;;;;;;;;;;740889;189;918341;-75
2021/09/13 06:21:07;;;;;;;117.20;35.33;;;;;;;;;;735005;189;923508;-74
2021/09/13 06:23:33;;;;;;;46.13;28.83;;;;;;;;;;735727;189;920715;-73
2021/09/13 06:25:59;;;;;;;40.27;25.27;;;;;;;;;;738330;189;919105;-75
2021/09/13 06:28:25;;;;;;;33.50;23.00;;;;;;;;;;733037;189;918388;-75
2021/09/13 06:30:51;;;;;;;34.90;24.70;;;;;;;;;;736095;189;923934;-73
2021/09/13 06:33:17;;;;;;;38.67;25.50;;;;;;;;;;732273;189;919702;-75
2021/09/13 06:35:42;;;;;;;47.27;27.83;;;;;;;;;;739619;189;918276;-74
2021/09/13 06:38:08;;;;;;;33.37;24.03;;;;;;;;;;733576;189;919014;-75
2021/09/13 06:40:35;;;;;;;28.27;21.57;;;;;;;;;;732611;189;918444;-75
2021/09/13 06:43:00;;;;;;;32.37;21.80;;;;;;;;;;737586;189;917975;-76
2021/09/13 06:45:26;;;;;;;33.10;22.40;;;;;;;;;;734560;189;915828;-76
2021/09/13 06:47:52;;;;;;;31.40;22.73;;;;;;;;;;731077;189;915811;-78
2021/09/13 06:50:18;;;;;;;33.30;22.77;;;;;;;;;;737155;190;915524;-74
2021/09/13 06:52:44;;;;;;;95.43;30.27;;;;;;;;;;736998;189;917007;-75
2021/09/13 06:55:11;;;;;;;41.88;22.80;;;;;;;;;;735048;189;1017577;-76
2021/09/13 06:57:37;;;;;;;32.70;22.47;;;;;;;;;;733314;189;919477;-78
2021/09/13 07:00:06;;;;;;;28.00;21.03;;;;;;;;;;729492;191;918733;-77
2021/09/13 07:02:32;;;;;;;28.27;20.73;;;;;;;;;;734894;189;918685;-77
2021/09/13 07:04:59;;;;;;;27.03;20.90;;;;;;;;;;733869;189;918245;-75
2021/09/13 07:07:26;;;;;;;27.60;20.23;;;;;;;;;;738633;189;918701;-78
2021/09/13 07:09:53;;;;;;;98.30;31.80;;;;;;;;;;736253;189;919381;-76
2021/09/13 07:12:19;;;;;;;28.10;19.93;;;;;;;;;;735039;188;920044;-79
2021/09/13 07:14:44;;;;;;;26.53;19.57;;;;;;;;;;733883;189;919181;-77
2021/09/13 07:17:10;;;;;;;24.67;18.90;;;;;;;;;;739902;189;918931;-80
2021/09/13 07:19:37;;;;;;;25.30;19.20;;;;;;;;;;735560;190;905883;-78
2021/09/13 07:22:02;;;;;;;24.73;18.90;;;;;;;;;;733872;189;919726;-78
2021/09/13 07:24:28;;;;;;;25.12;18.83;;;;;;;;;;740734;189;915157;-80
2021/09/13 07:26:54;;;;;;;22.60;18.33;;;;;;;;;;734914;190;917823;-79
2021/09/13 07:29:20;;;;;;;25.13;19.03;;;;;;;;;;736230;189;966503;-76
2021/09/13 07:31:45;;;;;;;20.88;16.27;;;;;;;;;;741622;189;924960;-78
2021/09/13 07:34:11;;;;;;;23.13;17.83;;;;;;;;;;734747;189;918930;-76
2021/09/13 07:36:37;;;;;;;25.67;17.92;;;;;;;;;;732057;189;918488;-80
2021/09/13 07:39:04;;;;;;;24.07;16.83;;;;;;;;;;732005;189;918910;-80
2021/09/13 07:41:30;;;;;;;22.13;16.40;;;;;;;;;;730936;190;916741;-80
2021/09/13 07:43:55;;;;;;;23.47;19.03;;;;;;;;;;735905;190;867801;-81
2021/09/13 07:46:21;;;;;;;23.13;17.57;;;;;;;;;;730913;190;917232;-76
2021/09/13 07:48:47;;;;;;;26.83;19.70;;;;;;;;;;740851;189;920148;-83
2021/09/13 07:51:13;;;;;;;24.43;18.10;;;;;;;;;;733991;189;938264;-78
2021/09/13 07:53:39;;;;;;;22.30;17.43;;;;;;;;;;733266;189;919354;-75
2021/09/13 07:56:05;;;;;;;20.70;15.80;;;;;;;;;;739707;189;920053;-81
2021/09/13 07:58:32;;;;;;;20.00;15.87;;;;;;;;;;736723;189;918056;-77
2021/09/13 08:00:59;;;;;;;23.33;16.17;;;;;;;;;;732785;189;916856;-76
2021/09/13 08:03:25;;;;;;;18.90;14.00;;;;;;;;;;737384;189;816145;-81
2021/09/13 08:05:52;;;;;;;20.70;15.30;;;;;;;;;;738941;189;905711;-80
2021/09/13 08:08:19;;;;;;;24.15;14.77;;;;;;;;;;732708;189;1017382;-83
2021/09/13 08:10:45;;;;;;;20.23;15.50;;;;;;;;;;735662;189;914673;-75
2021/09/13 08:13:11;;;;;;;21.77;13.20;;;;;;;;;;739835;189;919353;-81
2021/09/13 08:15:36;;;;;;;20.97;15.43;;;;;;;;;;738160;189;918293;-77
2021/09/13 08:18:02;;;;;;;19.87;14.33;;;;;;;;;;736699;189;918637;-79
2021/09/13 08:20:28;;;;;;;21.57;15.00;;;;;;;;;;739793;189;816952;-82
2021/09/13 08:22:56;;;;;;;20.90;14.30;;;;;;;;;;731015;189;920093;-81
2021/09/13 08:25:20;;;;;;;22.77;17.00;;;;;;;;;;735049;187;919287;-81
2021/09/13 08:27:46;;;;;;;17.33;13.62;;;;;;;;;;735985;189;917645;-76
2021/09/13 08:30:12;;;;;;;23.00;15.63;;;;;;;;;;740049;189;1011946;-83
2021/09/13 08:32:38;;;;;;;24.08;15.60;;;;;;;;;;735517;189;918654;-80
2021/09/13 08:35:04;;;;;;;20.07;14.03;;;;;;;;;;731667;189;1018819;-79
2021/09/13 08:37:30;;;;;;;22.13;15.50;;;;;;;;;;737450;189;919344;-78
2021/09/13 08:39:55;;;;;;;22.90;13.47;;;;;;;;;;734091;189;920873;-75
2021/09/13 08:42:21;;;;;;;23.80;14.40;;;;;;;;;;733191;189;918918;-79
2021/09/13 08:44:50;;;;;;;26.47;16.63;;;;;;;;;;740084;190;825485;-78
2021/09/13 08:47:20;;;;;;;22.33;17.20;;;;;;;;;;735851;189;929563;-72
2021/09/13 08:49:40;;;;;;;22.63;16.07;;;;;;;;;;736181;189;918266;-81
2021/09/13 08:52:06;;;;;;;22.83;14.63;;;;;;;;;;734573;189;918180;-82
2021/09/13 08:54:35;;;;;;;20.90;15.77;;;;;;;;;;741463;189;814806;-80
2021/09/13 08:57:03;;;;;;;21.27;14.82;;;;;;;;;;736398;189;956826;-80
2021/09/13 08:59:28;;;;;;;18.20;13.63;;;;;;;;;;735862;189;918529;-83
2021/09/13 09:01:55;;;;;;;21.53;14.37;;;;;;;;;;740258;189;815388;-75
2021/09/13 09:04:22;;;;;;;22.63;13.63;;;;;;;;;;739156;189;828994;-81
2021/09/13 09:06:48;;;;;;;21.43;14.07;;;;;;;;;;733249;189;826937;-79
2021/09/13 09:09:14;;;;;;;15.02;12.05;;;;;;;;;;731052;189;919176;-78
2021/09/13 09:11:46;;;;;;;17.03;13.47;;;;;;;;;;727681;190;919043;-80
2021/09/13 09:14:12;;;;;;;15.80;13.03;;;;;;;;;;729210;190;1123158;-78
2021/09/13 09:16:38;;;;;;;24.40;15.17;;;;;;;;;;732744;190;917500;-79
2021/09/13 09:19:04;;;;;;;19.43;14.27;;;;;;;;;;734859;190;818185;-80
2021/09/13 09:21:29;;;;;;;15.50;12.20;;;;;;;;;;731764;189;923241;-77
2021/09/13 09:23:56;;;;;;;15.90;12.30;;;;;;;;;;732809;189;1020968;-79
2021/09/13 09:26:22;;;;;;;16.87;13.10;;;;;;;;;;728547;189;917084;-79
2021/09/13 09:28:48;;;;;;;20.03;11.93;;;;;;;;;;739172;189;918214;-77
2021/09/13 09:31:14;;;;;;;17.23;12.73;;;;;;;;;;736478;189;918880;-80
2021/09/13 09:33:41;;;;;;;15.90;10.67;;;;;;;;;;733307;189;918512;-77
2021/09/13 09:36:06;;;;;;;12.07;9.80;;;;;;;;;;738662;189;816030;-80
2021/09/13 09:38:35;;;;;;;20.73;11.90;;;;;;;;;;740555;189;811281;-78
2021/09/13 09:41:02;;;;;;;10.90;9.07;;;;;;;;;;736476;189;918705;-80
2021/09/13 09:43:29;;;;;;;12.80;7.30;;;;;;;;;;732891;189;919180;-78
2021/09/13 09:45:55;;;;;;;9.97;8.10;;;;;;;;;;731022;189;917461;-78
2021/09/13 09:48:22;;;;;;;9.60;6.80;;;;;;;;;;733221;189;918014;-79
2021/09/13 09:50:48;;;;;;;8.40;6.70;;;;;;;;;;734339;189;905895;-78
2021/09/13 09:53:15;;;;;;;7.70;6.50;;;;;;;;;;742903;189;918639;-80
2021/09/13 09:55:43;;;;;;;9.27;8.30;;;;;;;;;;738632;189;815197;-77
2021/09/13 09:58:11;;;;;;;8.83;6.93;;;;;;;;;;733971;189;918661;-77
2021/09/13 10:00:38;;;;;;;7.73;6.67;;;;;;;;;;734710;189;918684;-77
2021/09/13 10:03:02;;;;;;;9.33;6.90;;;;;;;;;;730294;190;936981;-76
2021/09/13 10:05:28;;;;;;;9.63;6.70;;;;;;;;;;732457;189;920949;-78
2021/09/13 10:07:54;;;;;;;11.07;7.67;;;;;;;;;;735193;189;820077;-78
2021/09/13 10:10:20;;;;;;;13.70;7.47;;;;;;;;;;738874;189;917511;-79
2021/09/13 10:12:46;;;;;;;11.37;7.57;;;;;;;;;;735517;189;948448;-78
2021/09/13 10:15:12;;;;;;;9.97;8.20;;;;;;;;;;733870;189;903953;-74
2021/09/13 10:17:38;;;;;;;8.10;7.07;;;;;;;;;;741548;189;918232;-76
2021/09/13 10:20:04;;;;;;;8.27;7.20;;;;;;;;;;735796;189;919966;-76
2021/09/13 10:22:30;;;;;;;7.77;6.97;;;;;;;;;;732302;189;918817;-78
2021/09/13 10:24:56;;;;;;;9.50;6.97;;;;;;;;;;732660;189;915812;-77
2021/09/13 10:27:21;;;;;;;10.40;6.93;;;;;;;;;;726889;189;916257;-77
2021/09/13 10:29:47;;;;;;;7.63;6.60;;;;;;;;;;732973;190;911834;-75
2021/09/13 10:32:13;;;;;;;9.13;7.40;;;;;;;;;;734127;190;920580;-77
2021/09/13 10:34:49;;;;;;;10.43;6.83;;;;;;;;;;739803;189;915730;-79
2021/09/13 10:37:18;;;;;;;13.23;7.30;;;;;;;;;;731561;190;879697;-74
2021/09/13 10:39:48;;;;;;;8.93;7.43;;;;;;;;;;736463;189;913451;-75
2021/09/13 10:42:20;;;;;;;9.07;6.67;;;;;;;;;;730765;190;917985;-77
2021/09/13 10:44:47;;;;;;;7.87;6.73;;;;;;;;;;735812;189;919032;-76
2021/09/13 10:47:13;;;;;;;7.53;6.77;;;;;;;;;;733558;189;918660;-75
2021/09/13 10:49:40;;;;;;;6.23;5.60;;;;;;;;;;737303;189;919044;-74
2021/09/13 10:52:12;;;;;;;8.60;6.53;;;;;;;;;;736922;189;918903;-80
2021/09/13 10:54:58;;;;;;;6.53;5.73;;;;;;;;;;739809;189;927667;-77
2021/09/13 10:57:30;;;;;;;10.07;6.13;;;;;;;;;;722676;192;918431;-78
2021/09/13 10:59:56;;;;;;;7.93;6.67;;;;;;;;;;720298;193;815012;-75
2021/09/13 11:02:21;;;;;;;8.80;5.90;;;;;;;;;;734320;189;918365;-77
2021/09/13 11:04:53;;;;;;;7.00;6.30;;;;;;;;;;734659;189;883881;-76
2021/09/13 11:07:19;;;;;;;7.13;6.23;;;;;;;;;;737409;189;838471;-76
2021/09/13 11:09:45;;;;;;;9.03;7.10;;;;;;;;;;734838;190;815244;-78
2021/09/13 11:12:11;;;;;;;6.50;5.80;;;;;;;;;;732220;187;919468;-80
2021/09/13 11:14:37;;;;;;;8.00;6.07;;;;;;;;;;731690;189;922712;-75
2021/09/13 11:17:03;;;;;;;8.10;6.43;;;;;;;;;;741827;189;918337;-79
2021/09/13 11:19:29;;;;;;;7.50;6.50;;;;;;;;;;731529;190;892749;-77
2021/09/13 11:21:55;;;;;;;6.60;5.90;;;;;;;;;;734650;189;916225;-76
2021/09/13 11:24:22;;;;;;;8.10;5.70;;;;;;;;;;738189;189;918486;-77
2021/09/13 11:26:50;;;;;;;7.50;5.50;;;;;;;;;;736637;189;816512;-77
2021/09/13 11:29:15;;;;;;;7.67;6.53;;;;;;;;;;738943;189;817560;-76
2021/09/13 11:31:43;;;;;;;11.93;6.97;;;;;;;;;;730180;190;1020795;-76
2021/09/13 11:34:25;;;;;;;9.40;6.57;;;;;;;;;;739595;189;936988;-74
2021/09/13 11:36:52;;;;;;;12.73;7.20;;;;;;;;;;733461;190;919003;-75
2021/09/13 11:39:19;;;;;;;9.23;7.23;;;;;;;;;;736928;189;1022440;-76
2021/09/13 11:41:51;;;;;;;8.88;6.65;;;;;;;;;;728922;189;1023615;-77
2021/09/13 11:44:18;;;;;;;7.00;6.30;;;;;;;;;;734140;189;918309;-78
2021/09/13 11:46:50;;;;;;;8.00;6.63;;;;;;;;;;737498;186;815763;-78
2021/09/13 11:49:17;;;;;;;12.00;6.60;;;;;;;;;;733393;190;918692;-76
2021/09/13 11:51:48;;;;;;;8.00;6.10;;;;;;;;;;735405;190;845282;-80
2021/09/13 11:54:14;;;;;;;6.07;5.43;;;;;;;;;;733771;190;918273;-78
2021/09/13 11:56:40;;;;;;;8.77;6.83;;;;;;;;;;737412;189;815273;-77
2021/09/13 11:59:06;;;;;;;7.63;6.00;;;;;;;;;;726914;189;919240;-76
2021/09/13 12:01:32;;;;;;;7.97;5.90;;;;;;;;;;736154;189;901317;-77
2021/09/13 12:03:58;;;;;;;6.47;5.40;;;;;;;;;;740983;189;917291;-74
2021/09/13 12:06:24;;;;;;;8.60;5.50;;;;;;;;;;735750;189;917553;-76
2021/09/13 12:08:49;;;;;;;7.73;6.60;;;;;;;;;;737576;189;913985;-77
2021/09/13 12:11:17;;;;;;;8.17;5.37;;;;;;;;;;739100;189;920127;-76
2021/09/13 12:13:43;;;;;;;6.80;5.45;;;;;;;;;;737145;189;916492;-79
2021/09/13 12:16:09;;;;;;;7.33;5.90;;;;;;;;;;736132;189;915270;-79
2021/09/13 12:18:35;;;;;;;10.40;6.87;;;;;;;;;;727804;189;915143;-79
2021/09/13 12:21:01;;;;;;;9.23;6.70;;;;;;;;;;741077;189;914753;-77
2021/09/13 12:23:29;;;;;;;11.10;5.97;;;;;;;;;;732856;189;918641;-76
2021/09/13 12:25:53;;;;;;;7.07;6.20;;;;;;;;;;733317;189;914753;-77
2021/09/13 12:28:18;;;;;;;7.93;6.47;;;;;;;;;;738908;189;918035;-76
2021/09/13 12:30:44;;;;;;;11.73;7.80;;;;;;;;;;734327;189;917996;-79
2021/09/13 12:33:10;;;;;;;8.80;6.50;;;;;;;;;;735934;189;906914;-77
2021/09/13 12:35:38;;;;;;;7.10;6.30;;;;;;;;;;738680;189;816912;-75
2021/09/13 12:38:05;;;;;;;7.53;6.50;;;;;;;;;;737901;189;856956;-77
2021/09/13 12:40:31;;;;;;;7.60;5.50;;;;;;;;;;726788;191;814581;-76
2021/09/13 12:42:59;;;;;;;7.90;7.03;;;;;;;;;;733224;189;919437;-74
2021/09/13 12:45:26;;;;;;;12.00;8.70;;;;;;;;;;739833;189;901005;-76
2021/09/13 12:47:57;;;;;;;21.83;12.37;;;;;;;;;;735981;189;815472;-76
2021/09/13 12:50:24;;;;;;;15.53;9.67;;;;;;;;;;730691;189;1042525;-77
2021/09/13 12:52:50;;;;;;;9.40;6.30;;;;;;;;;;734033;189;919060;-77
2021/09/13 12:55:17;;;;;;;7.43;6.73;;;;;;;;;;741980;189;894736;-77
2021/09/13 12:57:44;;;;;;;8.40;5.93;;;;;;;;;;736164;189;918950;-75
2021/09/13 13:00:10;;;;;;;6.37;5.43;;;;;;;;;;732203;189;918772;-76
2021/09/13 13:02:36;;;;;;;7.33;5.70;;;;;;;;;;736757;189;912425;-78
2021/09/13 13:05:02;;;;;;;9.07;6.57;;;;;;;;;;732494;189;918177;-78
2021/09/13 13:07:28;;;;;;;12.13;9.97;;;;;;;;;;732822;189;809687;-77
2021/09/13 13:09:54;;;;;;;10.27;7.85;;;;;;;;;;737278;189;820353;-78
2021/09/13 13:12:21;;;;;;;7.07;5.60;;;;;;;;;;735607;187;824100;-79
2021/09/13 13:14:46;;;;;;;6.20;5.60;;;;;;;;;;734060;189;938308;-78
2021/09/13 13:17:11;;;;;;;8.00;6.47;;;;;;;;;;738128;189;817930;-77
2021/09/13 13:19:37;;;;;;;7.17;6.43;;;;;;;;;;740885;189;808971;-77
2021/09/13 13:22:03;;;;;;;8.20;5.87;;;;;;;;;;734821;189;864694;-75
2021/09/13 13:24:29;;;;;;;7.63;6.73;;;;;;;;;;735022;189;916439;-79
2021/09/13 13:26:55;;;;;;;19.10;7.00;;;;;;;;;;738459;189;918720;-80
2021/09/13 13:29:22;;;;;;;8.80;6.17;;;;;;;;;;735906;189;816687;-76
2021/09/13 13:31:48;;;;;;;8.40;6.23;;;;;;;;;;734151;190;918880;-78
2021/09/13 13:34:15;;;;;;;8.80;6.03;;;;;;;;;;735992;189;816084;-76
2021/09/13 13:36:42;;;;;;;6.20;5.30;;;;;;;;;;730514;187;918350;-83
2021/09/13 13:39:08;;;;;;;9.27;6.10;;;;;;;;;;730635;189;918300;-78
2021/09/13 13:41:34;;;;;;;12.20;6.37;;;;;;;;;;733146;189;916220;-75
2021/09/13 13:44:00;;;;;;;9.30;5.63;;;;;;;;;;738627;189;815664;-78
2021/09/13 13:46:27;;;;;;;8.70;5.85;;;;;;;;;;736831;189;919219;-81
2021/09/13 13:48:52;;;;;;;10.13;6.87;;;;;;;;;;735589;189;919651;-79
2021/09/13 13:51:17;;;;;;;12.03;6.67;;;;;;;;;;739312;189;821820;-80
2021/09/13 13:53:43;;;;;;;26.40;7.70;;;;;;;;;;735909;189;919334;-79
2021/09/13 13:56:09;;;;;;;13.80;7.13;;;;;;;;;;737950;189;882231;-78
2021/09/13 13:58:35;;;;;;;12.77;6.83;;;;;;;;;;737251;189;817401;-76
2021/09/13 14:01:01;;;;;;;11.43;6.70;;;;;;;;;;727913;192;919099;-78
2021/09/13 14:03:27;;;;;;;12.93;7.20;;;;;;;;;;727602;193;918012;-76
2021/09/13 14:05:52;;;;;;;8.73;7.43;;;;;;;;;;732279;190;917681;-75
2021/09/13 14:08:18;;;;;;;10.83;7.63;;;;;;;;;;739473;189;918773;-79